sensor_id;sensor_type;location;lat;lon;timestamp;P1;durP1;ratioP1;P2;durP2;ratioP2
21281;SDS011;10800;53.096;18.328;2023-09-19T00:03:43;19.10;;;10.77;;
21281;SDS011;10800;53.096;18.328;2023-09-19T00:08:52;19.13;;;11.53;;
21281;SDS011;10800;53.096;18.328;2023-09-19T00:14:01;24.35;;;12.85;;
21281;SDS011;10800;53.096;18.328;2023-09-19T00:19:10;17.73;;;10.90;;
21281;SDS011;10800;53.096;18.328;2023-09-19T00:24:16;20.70;;;12.60;;
21281;SDS011;10800;53.096;18.328;2023-09-19T00:29:26;20.53;;;11.97;;
21281;SDS011;10800;53.096;18.328;2023-09-19T00:34:33;17.77;;;11.47;;
21281;SDS011;10800;53.096;18.328;2023-09-19T00:39:40;21.77;;;12.13;;
21281;SDS011;10800;53.096;18.328;2023-09-19T00:44:47;22.90;;;12.77;;
21281;SDS011;10800;53.096;18.328;2023-09-19T00:49:54;27.17;;;13.33;;
21281;SDS011;10800;53.096;18.328;2023-09-19T00:54:59;19.10;;;12.23;;
21281;SDS011;10800;53.096;18.328;2023-09-19T01:00:10;21.40;;;14.60;;
21281;SDS011;10800;53.096;18.328;2023-09-19T01:05:35;20.33;;;12.67;;
21281;SDS011;10800;53.096;18.328;2023-09-19T01:10:46;23.43;;;13.67;;
21281;SDS011;10800;53.096;18.328;2023-09-19T01:21:21;22.80;;;13.33;;
21281;SDS011;10800;53.096;18.328;2023-09-19T01:32:08;19.43;;;11.63;;
21281;SDS011;10800;53.096;18.328;2023-09-19T01:37:09;17.27;;;11.10;;
21281;SDS011;10800;53.096;18.328;2023-09-19T01:42:19;17.23;;;11.30;;
21281;SDS011;10800;53.096;18.328;2023-09-19T01:47:33;20.57;;;11.40;;
21281;SDS011;10800;53.096;18.328;2023-09-19T01:53:07;16.47;;;10.23;;
21281;SDS011;10800;53.096;18.328;2023-09-19T02:03:38;16.07;;;9.50;;
21281;SDS011;10800;53.096;18.328;2023-09-19T02:09:17;13.90;;;8.67;;
21281;SDS011;10800;53.096;18.328;2023-09-19T02:14:27;20.23;;;9.40;;
21281;SDS011;10800;53.096;18.328;2023-09-19T02:19:38;14.73;;;7.97;;
21281;SDS011;10800;53.096;18.328;2023-09-19T02:24:44;11.37;;;6.73;;
21281;SDS011;10800;53.096;18.328;2023-09-19T02:29:53;8.97;;;5.77;;
21281;SDS011;10800;53.096;18.328;2023-09-19T02:35:02;9.67;;;5.30;;
21281;SDS011;10800;53.096;18.328;2023-09-19T02:40:08;7.67;;;4.20;;
21281;SDS011;10800;53.096;18.328;2023-09-19T02:45:23;8.33;;;3.70;;
21281;SDS011;10800;53.096;18.328;2023-09-19T02:50:35;4.70;;;3.17;;
21281;SDS011;10800;53.096;18.328;2023-09-19T02:55:49;5.60;;;2.73;;
21281;SDS011;10800;53.096;18.328;2023-09-19T03:00:56;5.50;;;2.73;;
21281;SDS011;10800;53.096;18.328;2023-09-19T03:06:01;4.63;;;2.90;;
21281;SDS011;10800;53.096;18.328;2023-09-19T03:11:10;5.67;;;3.00;;
21281;SDS011;10800;53.096;18.328;2023-09-19T03:16:17;4.77;;;2.73;;
21281;SDS011;10800;53.096;18.328;2023-09-19T03:26:44;8.07;;;3.67;;
21281;SDS011;10800;53.096;18.328;2023-09-19T03:31:51;6.57;;;3.57;;
21281;SDS011;10800;53.096;18.328;2023-09-19T03:36:58;6.13;;;3.27;;
21281;SDS011;10800;53.096;18.328;2023-09-19T03:42:03;8.20;;;3.20;;
21281;SDS011;10800;53.096;18.328;2023-09-19T03:47:10;12.07;;;3.80;;
21281;SDS011;10800;53.096;18.328;2023-09-19T03:52:18;8.87;;;4.13;;
21281;SDS011;10800;53.096;18.328;2023-09-19T03:57:34;10.67;;;3.80;;
21281;SDS011;10800;53.096;18.328;2023-09-19T04:02:40;6.50;;;3.33;;
21281;SDS011;10800;53.096;18.328;2023-09-19T04:07:47;7.23;;;3.27;;
21281;SDS011;10800;53.096;18.328;2023-09-19T04:13:10;6.27;;;3.17;;
21281;SDS011;10800;53.096;18.328;2023-09-19T04:18:15;6.20;;;2.87;;
21281;SDS011;10800;53.096;18.328;2023-09-19T04:23:21;4.13;;;2.83;;
21281;SDS011;10800;53.096;18.328;2023-09-19T04:28:27;6.20;;;3.33;;
21281;SDS011;10800;53.096;18.328;2023-09-19T04:33:42;7.57;;;3.57;;
21281;SDS011;10800;53.096;18.328;2023-09-19T04:38:55;8.00;;;3.37;;
21281;SDS011;10800;53.096;18.328;2023-09-19T04:44:02;5.63;;;3.37;;
21281;SDS011;10800;53.096;18.328;2023-09-19T04:49:08;8.77;;;3.70;;
21281;SDS011;10800;53.096;18.328;2023-09-19T04:54:15;10.03;;;3.57;;
21281;SDS011;10800;53.096;18.328;2023-09-19T04:59:22;11.47;;;3.47;;
21281;SDS011;10800;53.096;18.328;2023-09-19T05:04:28;6.73;;;2.90;;
21281;SDS011;10800;53.096;18.328;2023-09-19T05:09:33;11.50;;;3.67;;
21281;SDS011;10800;53.096;18.328;2023-09-19T05:14:42;10.40;;;2.97;;
21281;SDS011;10800;53.096;18.328;2023-09-19T05:19:48;8.40;;;3.60;;
21281;SDS011;10800;53.096;18.328;2023-09-19T05:24:54;8.33;;;3.63;;
21281;SDS011;10800;53.096;18.328;2023-09-19T05:29:59;6.17;;;3.20;;
21281;SDS011;10800;53.096;18.328;2023-09-19T05:35:04;5.53;;;2.47;;
21281;SDS011;10800;53.096;18.328;2023-09-19T05:40:17;7.97;;;3.27;;
21281;SDS011;10800;53.096;18.328;2023-09-19T05:45:26;4.53;;;2.70;;
21281;SDS011;10800;53.096;18.328;2023-09-19T05:50:31;6.27;;;2.80;;
21281;SDS011;10800;53.096;18.328;2023-09-19T05:55:38;3.70;;;2.30;;
21281;SDS011;10800;53.096;18.328;2023-09-19T06:00:45;3.20;;;2.17;;
21281;SDS011;10800;53.096;18.328;2023-09-19T06:05:53;3.27;;;2.53;;
21281;SDS011;10800;53.096;18.328;2023-09-19T06:11:02;3.40;;;2.70;;
21281;SDS011;10800;53.096;18.328;2023-09-19T06:16:09;6.30;;;2.87;;
21281;SDS011;10800;53.096;18.328;2023-09-19T06:21:25;5.03;;;2.43;;
21281;SDS011;10800;53.096;18.328;2023-09-19T06:26:33;7.23;;;2.80;;
21281;SDS011;10800;53.096;18.328;2023-09-19T06:31:39;5.87;;;2.60;;
21281;SDS011;10800;53.096;18.328;2023-09-19T06:36:46;3.47;;;2.73;;
21281;SDS011;10800;53.096;18.328;2023-09-19T06:41:51;9.10;;;2.87;;
21281;SDS011;10800;53.096;18.328;2023-09-19T06:46:57;7.77;;;3.27;;
21281;SDS011;10800;53.096;18.328;2023-09-19T06:52:10;4.90;;;3.20;;
21281;SDS011;10800;53.096;18.328;2023-09-19T06:57:16;7.13;;;3.20;;
21281;SDS011;10800;53.096;18.328;2023-09-19T07:02:23;4.53;;;3.10;;
21281;SDS011;10800;53.096;18.328;2023-09-19T07:07:29;12.17;;;3.17;;
21281;SDS011;10800;53.096;18.328;2023-09-19T07:12:34;6.47;;;3.30;;
21281;SDS011;10800;53.096;18.328;2023-09-19T07:17:40;4.53;;;3.10;;
21281;SDS011;10800;53.096;18.328;2023-09-19T07:22:46;5.33;;;3.70;;
21281;SDS011;10800;53.096;18.328;2023-09-19T07:27:51;6.87;;;3.47;;
21281;SDS011;10800;53.096;18.328;2023-09-19T07:32:58;13.47;;;3.53;;
21281;SDS011;10800;53.096;18.328;2023-09-19T07:38:05;6.50;;;3.90;;
21281;SDS011;10800;53.096;18.328;2023-09-19T07:43:11;5.47;;;3.63;;
21281;SDS011;10800;53.096;18.328;2023-09-19T07:48:17;8.27;;;4.13;;
21281;SDS011;10800;53.096;18.328;2023-09-19T07:53:22;8.07;;;3.90;;
21281;SDS011;10800;53.096;18.328;2023-09-19T07:58:28;5.60;;;3.00;;
21281;SDS011;10800;53.096;18.328;2023-09-19T08:03:34;7.00;;;4.00;;
21281;SDS011;10800;53.096;18.328;2023-09-19T08:08:46;5.53;;;3.97;;
21281;SDS011;10800;53.096;18.328;2023-09-19T08:13:54;6.87;;;3.57;;
21281;SDS011;10800;53.096;18.328;2023-09-19T08:18:59;8.00;;;3.73;;
21281;SDS011;10800;53.096;18.328;2023-09-19T08:24:05;5.40;;;3.90;;
21281;SDS011;10800;53.096;18.328;2023-09-19T08:29:11;10.00;;;3.93;;
21281;SDS011;10800;53.096;18.328;2023-09-19T08:34:17;9.03;;;3.63;;
21281;SDS011;10800;53.096;18.328;2023-09-19T08:39:23;7.73;;;4.60;;
21281;SDS011;10800;53.096;18.328;2023-09-19T08:44:29;7.77;;;4.03;;
21281;SDS011;10800;53.096;18.328;2023-09-19T08:49:41;12.40;;;4.13;;
21281;SDS011;10800;53.096;18.328;2023-09-19T08:54:46;5.37;;;3.67;;
21281;SDS011;10800;53.096;18.328;2023-09-19T08:59:55;7.87;;;4.20;;
21281;SDS011;10800;53.096;18.328;2023-09-19T09:05:04;7.63;;;3.80;;
21281;SDS011;10800;53.096;18.328;2023-09-19T09:10:10;4.47;;;3.17;;
21281;SDS011;10800;53.096;18.328;2023-09-19T09:15:18;6.15;;;3.47;;
21281;SDS011;10800;53.096;18.328;2023-09-19T09:20:27;4.90;;;2.70;;
21281;SDS011;10800;53.096;18.328;2023-09-19T09:25:52;6.83;;;2.83;;
21281;SDS011;10800;53.096;18.328;2023-09-19T09:31:03;4.10;;;3.30;;
21281;SDS011;10800;53.096;18.328;2023-09-19T09:36:10;4.72;;;2.92;;
21281;SDS011;10800;53.096;18.328;2023-09-19T09:41:35;6.75;;;2.37;;
21281;SDS011;10800;53.096;18.328;2023-09-19T09:46:35;5.28;;;1.92;;
21281;SDS011;10800;53.096;18.328;2023-09-19T09:57:10;5.62;;;2.27;;
21281;SDS011;10800;53.096;18.328;2023-09-19T10:07:39;3.50;;;1.90;;
21281;SDS011;10800;53.096;18.328;2023-09-19T10:12:48;3.55;;;1.70;;
21281;SDS011;10800;53.096;18.328;2023-09-19T10:17:55;2.17;;;1.45;;
21281;SDS011;10800;53.096;18.328;2023-09-19T10:23:06;6.22;;;1.85;;
21281;SDS011;10800;53.096;18.328;2023-09-19T10:28:17;3.20;;;1.77;;
21281;SDS011;10800;53.096;18.328;2023-09-19T10:33:27;3.20;;;1.90;;
21281;SDS011;10800;53.096;18.328;2023-09-19T10:38:35;1.60;;;1.30;;
21281;SDS011;10800;53.096;18.328;2023-09-19T10:43:47;1.77;;;1.42;;
21281;SDS011;10800;53.096;18.328;2023-09-19T10:48:52;1.85;;;1.30;;
21281;SDS011;10800;53.096;18.328;2023-09-19T10:54:02;2.97;;;1.10;;
21281;SDS011;10800;53.096;18.328;2023-09-19T10:59:17;3.30;;;1.20;;
21281;SDS011;10800;53.096;18.328;2023-09-19T11:04:31;1.07;;;1.00;;
21281;SDS011;10800;53.096;18.328;2023-09-19T11:15:00;5.75;;;1.55;;
21281;SDS011;10800;53.096;18.328;2023-09-19T11:30:41;3.77;;;1.45;;
21281;SDS011;10800;53.096;18.328;2023-09-19T11:52:00;0.72;;;0.72;;
21281;SDS011;10800;53.096;18.328;2023-09-19T11:57:08;1.07;;;0.75;;
21281;SDS011;10800;53.096;18.328;2023-09-19T12:02:27;1.82;;;1.05;;
21281;SDS011;10800;53.096;18.328;2023-09-19T12:07:25;3.22;;;1.32;;
21281;SDS011;10800;53.096;18.328;2023-09-19T12:12:30;1.20;;;1.02;;
21281;SDS011;10800;53.096;18.328;2023-09-19T12:17:38;3.80;;;1.47;;
21281;SDS011;10800;53.096;18.328;2023-09-19T12:22:50;2.67;;;0.78;;
21281;SDS011;10800;53.096;18.328;2023-09-19T12:27:56;2.30;;;1.00;;
21281;SDS011;10800;53.096;18.328;2023-09-19T12:33:05;1.95;;;0.88;;
21281;SDS011;10800;53.096;18.328;2023-09-19T12:38:22;1.27;;;0.90;;
21281;SDS011;10800;53.096;18.328;2023-09-19T12:43:31;3.58;;;2.55;;
21281;SDS011;10800;53.096;18.328;2023-09-19T12:48:41;1.75;;;0.90;;
21281;SDS011;10800;53.096;18.328;2023-09-19T12:53:56;3.45;;;1.02;;
21281;SDS011;10800;53.096;18.328;2023-09-19T13:04:14;1.98;;;1.05;;
21281;SDS011;10800;53.096;18.328;2023-09-19T13:09:24;1.82;;;1.12;;
21281;SDS011;10800;53.096;18.328;2023-09-19T13:14:32;4.55;;;2.15;;
21281;SDS011;10800;53.096;18.328;2023-09-19T13:24:57;1.75;;;0.88;;
21281;SDS011;10800;53.096;18.328;2023-09-19T13:30:04;1.32;;;0.80;;
21281;SDS011;10800;53.096;18.328;2023-09-19T13:35:09;3.12;;;1.02;;
21281;SDS011;10800;53.096;18.328;2023-09-19T13:40:16;4.95;;;0.95;;
21281;SDS011;10800;53.096;18.328;2023-09-19T13:45:23;5.87;;;1.32;;
21281;SDS011;10800;53.096;18.328;2023-09-19T13:50:32;4.15;;;1.42;;
21281;SDS011;10800;53.096;18.328;2023-09-19T13:55:40;4.67;;;1.45;;
21281;SDS011;10800;53.096;18.328;2023-09-19T14:00:49;3.27;;;1.20;;
21281;SDS011;10800;53.096;18.328;2023-09-19T14:06:02;4.12;;;1.37;;
21281;SDS011;10800;53.096;18.328;2023-09-19T14:11:11;7.03;;;1.62;;
21281;SDS011;10800;53.096;18.328;2023-09-19T14:16:17;5.60;;;1.10;;
21281;SDS011;10800;53.096;18.328;2023-09-19T14:21:27;2.27;;;1.00;;
21281;SDS011;10800;53.096;18.328;2023-09-19T14:26:38;2.33;;;1.32;;
21281;SDS011;10800;53.096;18.328;2023-09-19T14:31:45;4.45;;;1.52;;
21281;SDS011;10800;53.096;18.328;2023-09-19T14:36:53;4.67;;;1.87;;
21281;SDS011;10800;53.096;18.328;2023-09-19T14:42:06;2.72;;;1.32;;
21281;SDS011;10800;53.096;18.328;2023-09-19T14:47:14;3.08;;;1.50;;
21281;SDS011;10800;53.096;18.328;2023-09-19T14:52:24;4.87;;;1.98;;
21281;SDS011;10800;53.096;18.328;2023-09-19T14:57:33;4.75;;;1.70;;
21281;SDS011;10800;53.096;18.328;2023-09-19T15:02:41;3.80;;;1.27;;
21281;SDS011;10800;53.096;18.328;2023-09-19T15:07:49;5.05;;;1.90;;
21281;SDS011;10800;53.096;18.328;2023-09-19T15:12:55;5.07;;;2.10;;
21281;SDS011;10800;53.096;18.328;2023-09-19T15:18:01;3.10;;;2.00;;
21281;SDS011;10800;53.096;18.328;2023-09-19T15:23:08;4.75;;;2.20;;
21281;SDS011;10800;53.096;18.328;2023-09-19T15:28:13;5.10;;;2.65;;
21281;SDS011;10800;53.096;18.328;2023-09-19T15:33:18;9.88;;;4.80;;
21281;SDS011;10800;53.096;18.328;2023-09-19T15:38:24;7.20;;;2.47;;
21281;SDS011;10800;53.096;18.328;2023-09-19T15:43:30;2.37;;;1.80;;
21281;SDS011;10800;53.096;18.328;2023-09-19T15:48:37;4.77;;;1.80;;
21281;SDS011;10800;53.096;18.328;2023-09-19T15:53:48;4.90;;;2.47;;
21281;SDS011;10800;53.096;18.328;2023-09-19T15:58:54;3.67;;;1.80;;
21281;SDS011;10800;53.096;18.328;2023-09-19T16:04:00;3.13;;;2.00;;
21281;SDS011;10800;53.096;18.328;2023-09-19T16:09:06;5.42;;;2.05;;
21281;SDS011;10800;53.096;18.328;2023-09-19T16:14:14;3.80;;;1.97;;
21281;SDS011;10800;53.096;18.328;2023-09-19T16:19:21;7.67;;;2.17;;
21281;SDS011;10800;53.096;18.328;2023-09-19T16:24:27;3.87;;;1.97;;
21281;SDS011;10800;53.096;18.328;2023-09-19T16:29:33;5.90;;;2.50;;
21281;SDS011;10800;53.096;18.328;2023-09-19T16:34:44;5.13;;;2.67;;
21281;SDS011;10800;53.096;18.328;2023-09-19T16:39:49;10.40;;;2.83;;
21281;SDS011;10800;53.096;18.328;2023-09-19T16:44:58;7.13;;;4.27;;
21281;SDS011;10800;53.096;18.328;2023-09-19T16:50:10;6.03;;;3.93;;
21281;SDS011;10800;53.096;18.328;2023-09-19T16:55:24;8.83;;;3.67;;
21281;SDS011;10800;53.096;18.328;2023-09-19T17:00:39;21.67;;;4.60;;
21281;SDS011;10800;53.096;18.328;2023-09-19T17:05:48;9.90;;;3.33;;
21281;SDS011;10800;53.096;18.328;2023-09-19T17:11:07;11.10;;;3.67;;
21281;SDS011;10800;53.096;18.328;2023-09-19T17:16:15;13.07;;;3.03;;
21281;SDS011;10800;53.096;18.328;2023-09-19T17:21:29;12.23;;;3.50;;
21281;SDS011;10800;53.096;18.328;2023-09-19T17:26:39;14.83;;;4.93;;
21281;SDS011;10800;53.096;18.328;2023-09-19T17:31:46;11.57;;;4.03;;
21281;SDS011;10800;53.096;18.328;2023-09-19T17:36:51;9.13;;;4.17;;
21281;SDS011;10800;53.096;18.328;2023-09-19T17:41:59;12.50;;;4.53;;
21281;SDS011;10800;53.096;18.328;2023-09-19T17:47:07;16.00;;;4.73;;
21281;SDS011;10800;53.096;18.328;2023-09-19T17:52:25;13.13;;;5.40;;
21281;SDS011;10800;53.096;18.328;2023-09-19T17:57:31;16.57;;;5.13;;
21281;SDS011;10800;53.096;18.328;2023-09-19T18:02:38;10.83;;;3.97;;
21281;SDS011;10800;53.096;18.328;2023-09-19T18:07:49;24.27;;;5.93;;
21281;SDS011;10800;53.096;18.328;2023-09-19T18:13:03;9.50;;;4.33;;
21281;SDS011;10800;53.096;18.328;2023-09-19T18:18:12;7.73;;;3.17;;
21281;SDS011;10800;53.096;18.328;2023-09-19T18:23:24;8.57;;;3.50;;
21281;SDS011;10800;53.096;18.328;2023-09-19T18:28:35;8.87;;;2.87;;
21281;SDS011;10800;53.096;18.328;2023-09-19T18:33:45;7.33;;;3.33;;
21281;SDS011;10800;53.096;18.328;2023-09-19T18:38:52;5.70;;;3.30;;
21281;SDS011;10800;53.096;18.328;2023-09-19T18:44:00;5.00;;;3.03;;
21281;SDS011;10800;53.096;18.328;2023-09-19T18:49:05;6.70;;;3.47;;
21281;SDS011;10800;53.096;18.328;2023-09-19T18:54:11;12.17;;;4.70;;
21281;SDS011;10800;53.096;18.328;2023-09-19T18:59:17;8.07;;;4.53;;
21281;SDS011;10800;53.096;18.328;2023-09-19T19:04:24;10.63;;;3.87;;
21281;SDS011;10800;53.096;18.328;2023-09-19T19:09:30;7.83;;;3.73;;
21281;SDS011;10800;53.096;18.328;2023-09-19T19:14:36;8.77;;;3.50;;
21281;SDS011;10800;53.096;18.328;2023-09-19T19:19:42;15.57;;;3.57;;
21281;SDS011;10800;53.096;18.328;2023-09-19T19:24:55;19.07;;;5.50;;
21281;SDS011;10800;53.096;18.328;2023-09-19T19:30:18;10.63;;;5.70;;
21281;SDS011;10800;53.096;18.328;2023-09-19T19:35:30;13.83;;;5.43;;
21281;SDS011;10800;53.096;18.328;2023-09-19T19:40:37;10.33;;;4.97;;
21281;SDS011;10800;53.096;18.328;2023-09-19T19:45:43;10.90;;;4.67;;
21281;SDS011;10800;53.096;18.328;2023-09-19T19:50:57;12.80;;;4.03;;
21281;SDS011;10800;53.096;18.328;2023-09-19T19:56:10;11.97;;;3.87;;
21281;SDS011;10800;53.096;18.328;2023-09-19T20:01:20;9.60;;;4.23;;
21281;SDS011;10800;53.096;18.328;2023-09-19T20:06:28;7.87;;;3.27;;
21281;SDS011;10800;53.096;18.328;2023-09-19T20:11:46;6.37;;;3.47;;
21281;SDS011;10800;53.096;18.328;2023-09-19T20:16:52;8.17;;;3.20;;
21281;SDS011;10800;53.096;18.328;2023-09-19T20:22:00;7.90;;;4.17;;
21281;SDS011;10800;53.096;18.328;2023-09-19T20:27:07;6.53;;;3.70;;
21281;SDS011;10800;53.096;18.328;2023-09-19T20:32:20;10.83;;;3.90;;
21281;SDS011;10800;53.096;18.328;2023-09-19T20:37:28;13.43;;;5.13;;
21281;SDS011;10800;53.096;18.328;2023-09-19T20:42:34;13.23;;;5.13;;
21281;SDS011;10800;53.096;18.328;2023-09-19T20:47:40;11.43;;;5.33;;
21281;SDS011;10800;53.096;18.328;2023-09-19T20:52:46;22.17;;;7.30;;
21281;SDS011;10800;53.096;18.328;2023-09-19T20:57:52;15.83;;;5.73;;
21281;SDS011;10800;53.096;18.328;2023-09-19T21:02:57;9.43;;;5.23;;
21281;SDS011;10800;53.096;18.328;2023-09-19T21:08:03;11.67;;;5.27;;
21281;SDS011;10800;53.096;18.328;2023-09-19T21:13:09;13.70;;;5.67;;
21281;SDS011;10800;53.096;18.328;2023-09-19T21:18:15;9.97;;;4.20;;
21281;SDS011;10800;53.096;18.328;2023-09-19T21:23:20;6.20;;;4.27;;
21281;SDS011;10800;53.096;18.328;2023-09-19T21:28:26;11.93;;;3.73;;
21281;SDS011;10800;53.096;18.328;2023-09-19T21:33:32;6.90;;;3.87;;
21281;SDS011;10800;53.096;18.328;2023-09-19T21:38:42;5.90;;;3.97;;
21281;SDS011;10800;53.096;18.328;2023-09-19T21:43:47;8.40;;;4.07;;
21281;SDS011;10800;53.096;18.328;2023-09-19T21:48:55;6.97;;;4.03;;
21281;SDS011;10800;53.096;18.328;2023-09-19T21:54:03;8.00;;;3.60;;
21281;SDS011;10800;53.096;18.328;2023-09-19T21:59:10;9.53;;;4.03;;
21281;SDS011;10800;53.096;18.328;2023-09-19T22:04:16;14.83;;;5.00;;
21281;SDS011;10800;53.096;18.328;2023-09-19T22:09:21;15.47;;;5.77;;
21281;SDS011;10800;53.096;18.328;2023-09-19T22:14:27;20.97;;;8.47;;
21281;SDS011;10800;53.096;18.328;2023-09-19T22:19:35;25.83;;;14.27;;
21281;SDS011;10800;53.096;18.328;2023-09-19T22:24:42;28.00;;;16.80;;
21281;SDS011;10800;53.096;18.328;2023-09-19T22:29:53;36.13;;;18.13;;
21281;SDS011;10800;53.096;18.328;2023-09-19T22:35:01;30.83;;;17.30;;
21281;SDS011;10800;53.096;18.328;2023-09-19T22:40:10;22.73;;;14.20;;
21281;SDS011;10800;53.096;18.328;2023-09-19T22:45:20;26.83;;;11.80;;
21281;SDS011;10800;53.096;18.328;2023-09-19T22:50:26;22.80;;;12.93;;
21281;SDS011;10800;53.096;18.328;2023-09-19T22:55:36;21.37;;;11.67;;
21281;SDS011;10800;53.096;18.328;2023-09-19T23:00:43;24.67;;;11.43;;
21281;SDS011;10800;53.096;18.328;2023-09-19T23:05:49;20.17;;;10.83;;
21281;SDS011;10800;53.096;18.328;2023-09-19T23:11:01;13.97;;;7.60;;
21281;SDS011;10800;53.096;18.328;2023-09-19T23:16:11;11.43;;;6.73;;
21281;SDS011;10800;53.096;18.328;2023-09-19T23:21:20;12.23;;;8.30;;
21281;SDS011;10800;53.096;18.328;2023-09-19T23:26:27;15.20;;;8.43;;
21281;SDS011;10800;53.096;18.328;2023-09-19T23:31:35;10.13;;;6.27;;
21281;SDS011;10800;53.096;18.328;2023-09-19T23:36:41;11.13;;;6.43;;
21281;SDS011;10800;53.096;18.328;2023-09-19T23:41:54;14.03;;;5.60;;
21281;SDS011;10800;53.096;18.328;2023-09-19T23:47:02;13.50;;;5.83;;
21281;SDS011;10800;53.096;18.328;2023-09-19T23:52:10;16.93;;;5.37;;
21281;SDS011;10800;53.096;18.328;2023-09-19T23:57:17;11.37;;;5.43;;
